Time;durP1;ratioP1;P1;durP2;ratioP2;P2;SDS_P1;SDS_P2;PMS_P1;PMS_P2;Temp;Humidity;BMP_temperature;BMP_pressure;BME280_temperature;BME280_humidity;BME280_pressure;Samples;Min_cycle;Max_cycle;Signal;HPM_P1;HPM_P2
2023/04/25 00:00:14;;;;;;;15.10;4.20;;;;;;;4.56;100.00;101045.53;5054538;28;20025;-77
2023/04/25 00:02:40;;;;;;;11.90;4.50;;;;;;;4.74;100.00;101092.69;5055449;28;20480;-78
2023/04/25 00:05:05;;;;;;;17.02;5.53;;;;;;;4.67;100.00;101091.22;5055271;28;20041;-80
2023/04/25 00:07:32;;;;;;;13.23;4.85;;;;;;;4.53;100.00;101080.63;5055820;28;20473;-78
2023/04/25 00:09:57;;;;;;;14.73;4.55;;;;;;;4.55;100.00;101104.41;5055749;28;20025;-77
2023/04/25 00:12:22;;;;;;;14.02;4.68;;;;;;;4.44;100.00;101102.22;5055579;28;20082;-75
2023/04/25 00:14:49;;;;;;;12.68;5.25;;;;;;;4.44;100.00;101107.34;5054336;28;20028;-77
2023/04/25 00:17:16;;;;;;;13.00;4.28;;;;;;;4.40;100.00;101115.13;5055168;28;20032;-79
2023/04/25 00:19:44;;;;;;;11.75;4.63;;;;;;;4.35;100.00;101117.84;5055347;28;20025;-77
2023/04/25 00:22:10;;;;;;;16.55;5.32;;;;;;;4.26;100.00;101106.22;5055311;28;20159;-78
2023/04/25 00:24:35;;;;;;;17.75;4.78;;;;;;;4.24;100.00;101109.72;5055296;28;20029;-79
2023/04/25 00:27:01;;;;;;;14.15;4.55;;;;;;;4.26;100.00;101128.38;5054155;28;20410;-78
2023/04/25 00:29:26;;;;;;;15.90;4.60;;;;;;;4.13;100.00;101110.06;5055226;28;20479;-79
2023/04/25 00:31:51;;;;;;;16.55;4.88;;;;;;;4.12;100.00;101112.63;5054943;28;20025;-78
2023/04/25 00:34:17;;;;;;;16.83;5.30;;;;;;;4.21;100.00;101127.69;5055123;28;20033;-78
2023/04/25 00:36:42;;;;;;;14.90;4.93;;;;;;;4.00;100.00;101101.09;5055257;28;20025;-79
2023/04/25 00:39:08;;;;;;;15.38;5.10;;;;;;;4.21;100.00;101120.00;5054994;28;20441;-77
2023/04/25 00:41:33;;;;;;;14.68;5.53;;;;;;;4.24;100.00;101119.94;5055224;28;20108;-77
2023/04/25 00:44:00;;;;;;;16.20;4.95;;;;;;;4.22;100.00;101121.69;5053689;28;20086;-89
2023/04/25 00:46:25;;;;;;;14.98;4.78;;;;;;;4.19;100.00;101109.84;5055641;28;20033;-76
2023/04/25 00:48:50;;;;;;;16.10;5.68;;;;;;;4.19;100.00;101117.50;5054868;28;20385;-77
2023/04/25 00:51:20;;;;;;;14.52;4.85;;;;;;;4.01;100.00;101102.75;5054956;28;20103;-77
2023/04/25 00:53:46;;;;;;;13.07;4.68;;;;;;;3.76;100.00;101069.47;5054929;28;20024;-77
2023/04/25 00:56:12;;;;;;;16.45;5.15;;;;;;;3.99;100.00;101123.25;5054947;28;20082;-77
2023/04/25 00:58:38;;;;;;;12.93;4.90;;;;;;;3.93;100.00;101115.78;5054601;28;20036;-77
2023/04/25 01:01:03;;;;;;;15.23;5.43;;;;;;;3.70;100.00;101090.09;5054883;28;20052;-77
2023/04/25 01:03:32;;;;;;;14.85;5.53;;;;;;;3.61;100.00;101083.53;5054502;28;20068;-76
2023/04/25 01:05:58;;;;;;;16.73;5.35;;;;;;;3.82;100.00;101120.38;5054523;28;20097;-78
2023/04/25 01:08:27;;;;;;;20.42;5.57;;;;;;;3.74;100.00;101107.84;5054946;28;20066;-79
2023/04/25 01:10:52;;;;;;;15.68;5.55;;;;;;;3.79;100.00;101122.19;5054461;28;20029;-78
2023/04/25 01:13:18;;;;;;;13.88;4.95;;;;;;;3.79;100.00;101122.19;5054323;28;20124;-77
2023/04/25 01:15:43;;;;;;;16.33;5.45;;;;;;;3.78;100.00;101120.50;5053076;28;20507;-77
2023/04/25 01:18:09;;;;;;;19.67;6.15;;;;;;;3.76;100.00;101124.84;5054157;28;20035;-77
2023/04/25 01:20:36;;;;;;;19.13;6.25;;;;;;;3.77;100.00;101123.97;5054159;28;20021;-77
2023/04/25 01:23:03;;;;;;;19.00;5.80;;;;;;;3.87;100.00;101130.47;5054550;28;20025;-76
2023/04/25 01:25:29;;;;;;;14.25;5.38;;;;;;;4.00;100.00;101139.41;5054294;28;20087;-76
2023/04/25 01:27:56;;;;;;;22.98;6.07;;;;;;;4.12;100.00;101135.63;5054122;28;20048;-76
2023/04/25 01:30:21;;;;;;;22.30;6.30;;;;;;;4.20;100.00;101144.72;5054153;28;20025;-76
2023/04/25 01:32:48;;;;;;;19.55;5.25;;;;;;;4.21;100.00;101125.94;5053996;28;20479;-76
2023/04/25 01:35:13;;;;;;;17.40;5.70;;;;;;;4.14;100.00;101114.28;5054025;28;20021;-78
2023/04/25 01:37:40;;;;;;;13.77;5.15;;;;;;;4.07;100.00;101101.72;5054299;28;20112;-78
2023/04/25 01:40:07;;;;;;;19.08;6.28;;;;;;;4.37;100.00;101146.75;5073368;28;20024;-88
2023/04/25 01:42:35;;;;;;;19.88;5.85;;;;;;;4.41;100.00;101134.72;5074078;28;20039;-77
2023/04/25 01:45:01;;;;;;;17.90;6.03;;;;;;;4.41;100.00;101134.72;5073847;28;20031;-76
2023/04/25 01:47:26;;;;;;;22.08;6.03;;;;;;;4.42;100.00;101144.88;5073536;28;20028;-77
2023/04/25 01:49:51;;;;;;;17.10;6.00;;;;;;;4.47;100.00;101131.97;5073866;28;20067;-86
2023/04/25 01:52:17;;;;;;;17.27;5.75;;;;;;;4.47;100.00;101135.34;5073823;28;20021;-87
2023/04/25 01:54:44;;;;;;;19.23;6.18;;;;;;;4.47;100.00;101139.63;5073706;28;20052;-78
2023/04/25 01:57:13;;;;;;;16.05;5.60;;;;;;;4.39;100.00;101150.09;5073904;28;20028;-78
2023/04/25 01:59:38;;;;;;;13.43;5.63;;;;;;;4.31;100.00;101152.06;5073632;28;20037;-79
2023/04/25 02:02:04;;;;;;;21.00;6.00;;;;;;;4.10;100.00;101129.75;5073659;28;20557;-78
2023/04/25 02:04:30;;;;;;;17.02;6.05;;;;;;;4.16;100.00;101153.41;5072944;28;20438;-82
2023/04/25 02:06:55;;;;;;;19.70;6.28;;;;;;;4.14;100.00;101154.34;5073730;28;20028;-88
2023/04/25 02:09:21;;;;;;;19.83;5.60;;;;;;;3.97;100.00;101137.78;5074156;28;20108;-90
2023/04/25 02:11:46;;;;;;;19.85;6.20;;;;;;;4.00;100.00;101147.91;5073602;28;20024;-92
2023/04/25 02:14:11;;;;;;;19.48;5.80;;;;;;;4.07;100.00;101166.47;5073458;28;20433;-91
2023/04/25 02:16:38;;;;;;;18.02;5.57;;;;;;;4.03;100.00;101160.63;5073315;28;20041;-91
2023/04/25 02:19:03;;;;;;;18.08;5.90;;;;;;;3.99;100.00;101165.84;5073197;28;20040;-90
2023/04/25 02:21:30;;;;;;;16.13;6.07;;;;;;;4.01;100.00;101167.47;5073180;28;20029;-90
2023/04/25 02:23:55;;;;;;;18.77;5.57;;;;;;;3.78;100.00;101133.28;5071846;28;20429;-87
2023/04/25 02:26:21;;;;;;;16.65;6.35;;;;;;;3.92;100.00;101172.00;5073244;28;20108;-91
2023/04/25 02:28:46;;;;;;;17.77;6.47;;;;;;;3.85;100.00;101173.94;5073456;28;20384;-90
2023/04/25 02:31:11;;;;;;;18.08;6.13;;;;;;;3.50;100.00;101121.31;5073168;28;20357;-90
2023/04/25 02:33:37;;;;;;;22.23;5.90;;;;;;;3.39;100.00;101120.78;5072827;28;20024;-86
2023/04/25 02:36:03;;;;;;;21.38;6.60;;;;;;;3.59;100.00;101161.91;5072935;28;20065;-87
2023/04/25 02:38:28;;;;;;;16.65;5.63;;;;;;;3.56;100.00;101172.22;5073115;28;20082;-91
2023/04/25 02:40:53;;;;;;;18.27;6.35;;;;;;;3.46;100.00;101160.59;5088703;28;20025;-91
2023/04/25 02:43:20;;;;;;;18.95;5.93;;;;;;;3.31;100.00;101153.34;5073087;28;20032;-92
2023/04/25 02:45:45;;;;;;;16.75;5.88;;;;;;;3.32;100.00;101166.06;5072905;28;20028;-91
2023/04/25 02:48:11;;;;;;;13.32;5.50;;;;;;;3.19;100.00;101162.19;5072765;28;20055;-90
2023/04/25 02:50:36;;;;;;;13.55;5.20;;;;;;;3.15;100.00;101168.28;5072900;28;20483;-89
2023/04/25 02:53:01;;;;;;;21.30;5.93;;;;;;;3.10;100.00;101163.28;5072981;28;20512;-89
2023/04/25 02:55:27;;;;;;;15.38;5.75;;;;;;;3.05;100.00;101166.84;5072821;28;20028;-89
2023/04/25 02:57:55;;;;;;;17.60;5.60;;;;;;;2.93;100.00;101165.41;5072697;28;20028;-87
2023/04/25 03:00:20;;;;;;;15.07;5.35;;;;;;;2.96;100.00;101177.28;5072948;28;20028;-90
2023/04/25 03:02:46;;;;;;;14.82;6.25;;;;;;;2.64;100.00;101127.06;5072537;28;20073;-91
2023/04/25 03:05:11;;;;;;;17.63;5.40;;;;;;;2.87;100.00;101176.63;5072574;28;20033;-90
2023/04/25 03:07:39;;;;;;;15.77;5.30;;;;;;;2.77;100.00;101152.25;5072069;28;20021;-90
2023/04/25 03:10:05;;;;;;;18.70;6.05;;;;;;;2.84;100.00;101160.56;5072751;28;20032;-90
2023/04/25 03:12:31;;;;;;;17.60;6.07;;;;;;;2.95;100.00;101162.81;5072824;28;20170;-91
2023/04/25 03:14:56;;;;;;;20.25;5.93;;;;;;;2.83;100.00;101134.22;5072661;28;20107;-89
2023/04/25 03:17:21;;;;;;;18.00;7.00;;;;;;;3.08;100.00;101175.25;5072622;28;20094;-92
2023/04/25 03:19:47;;;;;;;20.08;6.88;;;;;;;3.11;100.00;101175.16;5072579;28;20033;-89
2023/04/25 03:22:12;;;;;;;22.52;6.65;;;;;;;3.23;100.00;101178.25;5072481;28;20070;-91
2023/04/25 03:24:38;;;;;;;16.48;6.65;;;;;;;3.31;100.00;101172.06;5071017;28;20032;-90
2023/04/25 03:27:03;;;;;;;23.00;6.75;;;;;;;3.39;100.00;101169.31;5072735;28;20032;-92
2023/04/25 03:29:28;;;;;;;17.92;7.30;;;;;;;3.43;100.00;101169.16;5072423;28;20074;-88
2023/04/25 03:31:54;;;;;;;16.88;6.40;;;;;;;3.48;100.00;101173.31;5072614;28;20024;-89
2023/04/25 03:34:21;;;;;;;19.48;6.45;;;;;;;3.51;100.00;101170.66;5072240;28;20032;-89
2023/04/25 03:36:46;;;;;;;11.93;5.45;;;;;;;3.37;100.00;101153.19;5072379;28;20028;-90
2023/04/25 03:39:12;;;;;;;17.77;6.82;;;;;;;3.55;100.00;101178.22;5072010;28;20029;-90
2023/04/25 03:41:37;;;;;;;16.95;6.43;;;;;;;3.43;100.00;101156.41;5072331;28;20031;-84
2023/04/25 03:44:02;;;;;;;18.98;6.30;;;;;;;3.56;100.00;101176.50;5072246;28;20430;-92
2023/04/25 03:46:28;;;;;;;22.13;6.88;;;;;;;3.53;100.00;101174.84;5072117;28;20029;-90
2023/04/25 03:48:53;;;;;;;20.52;7.65;;;;;;;3.54;100.00;101175.69;5071712;28;20047;-90
2023/04/25 03:51:18;;;;;;;17.30;5.85;;;;;;;3.51;100.00;101173.22;5072026;28;20145;-81
2023/04/25 03:53:44;;;;;;;17.15;6.22;;;;;;;3.51;100.00;101176.59;5071908;28;20024;-91
2023/04/25 03:56:09;;;;;;;20.50;6.55;;;;;;;3.53;100.00;101177.41;5071994;28;20032;-91
2023/04/25 03:58:36;;;;;;;17.08;6.53;;;;;;;3.52;100.00;101177.44;5072235;28;20046;-88
2023/04/25 04:01:07;;;;;;;17.73;7.15;;;;;;;3.50;100.00;101180.03;5071692;28;20062;-90
2023/04/25 04:03:32;;;;;;;24.70;7.65;;;;;;;3.33;100.00;101152.44;5070196;28;20391;-90
2023/04/25 04:05:59;;;;;;;21.63;7.10;;;;;;;3.51;100.00;101184.28;5071728;28;20028;-90
2023/04/25 04:08:24;;;;;;;16.80;6.65;;;;;;;3.38;100.00;101171.03;5071882;28;20475;-86
2023/04/25 04:10:50;;;;;;;21.30;6.88;;;;;;;3.34;100.00;101163.47;5071770;28;20028;-92
2023/04/25 04:13:15;;;;;;;23.52;7.22;;;;;;;3.55;100.00;101205.47;5071809;28;20024;-89
2023/04/25 04:15:41;;;;;;;18.00;6.18;;;;;;;3.33;100.00;101162.63;5072018;28;20024;-87
2023/04/25 04:18:06;;;;;;;23.02;6.60;;;;;;;3.54;100.00;101202.06;5073426;28;20028;-88
2023/04/25 04:20:31;;;;;;;16.95;6.05;;;;;;;3.30;100.00;101169.56;5075378;28;20296;-86
2023/04/25 04:22:57;;;;;;;23.73;6.80;;;;;;;3.46;100.00;101201.44;5075322;28;20029;-83
2023/04/25 04:25:22;;;;;;;21.45;6.60;;;;;;;3.12;100.00;101151.31;5075065;28;20036;-86
2023/04/25 04:27:48;;;;;;;20.00;6.88;;;;;;;3.44;100.00;101204.06;5075470;28;20020;-89
2023/04/25 04:30:13;;;;;;;17.40;5.88;;;;;;;3.51;100.00;101211.53;5075298;28;20452;-86
2023/04/25 04:32:38;;;;;;;16.55;6.15;;;;;;;3.55;100.00;101210.56;5075145;28;20028;-89
2023/04/25 04:35:06;;;;;;;22.40;6.75;;;;;;;3.60;100.00;101212.09;5075255;28;20059;-77
2023/04/25 04:37:32;;;;;;;20.05;6.30;;;;;;;3.62;100.00;101215.44;5075255;28;20038;-78
2023/04/25 04:39:57;;;;;;;22.98;6.60;;;;;;;3.64;100.00;101221.38;5074912;28;20025;-78
2023/04/25 04:42:24;;;;;;;17.85;6.15;;;;;;;3.72;100.00;101216.84;5074983;28;20066;-78
2023/04/25 04:44:49;;;;;;;17.23;6.15;;;;;;;3.76;100.00;101222.72;5074733;28;20460;-79
2023/04/25 04:47:15;;;;;;;17.30;6.25;;;;;;;3.85;100.00;101226.75;5074961;28;20027;-79
2023/04/25 04:49:40;;;;;;;18.85;6.03;;;;;;;3.89;100.00;101218.09;5074749;28;20024;-77
2023/04/25 04:52:05;;;;;;;18.33;6.38;;;;;;;3.98;100.00;101222.94;5074997;28;20117;-76
2023/04/25 04:54:31;;;;;;;20.40;6.18;;;;;;;4.07;100.00;101232.06;5073108;28;20062;-78
2023/04/25 04:56:56;;;;;;;23.13;6.20;;;;;;;4.12;100.00;101237.88;5073410;28;20020;-78
2023/04/25 04:59:22;;;;;;;15.65;6.63;;;;;;;3.84;100.00;101182.47;5074542;28;20083;-78
2023/04/25 05:01:47;;;;;;;18.00;6.78;;;;;;;4.26;100.00;101233.19;5074769;28;20043;-76
2023/04/25 05:04:12;;;;;;;22.40;6.25;;;;;;;4.31;100.00;101244.09;5074448;28;20122;-79
2023/04/25 05:06:38;;;;;;;18.73;6.95;;;;;;;4.40;100.00;101253.22;5072744;28;20077;-78
2023/04/25 05:09:03;;;;;;;16.05;5.90;;;;;;;4.45;100.00;101244.53;5074617;28;20024;-77
2023/04/25 05:11:29;;;;;;;23.17;7.03;;;;;;;4.53;100.00;101246.84;5089947;28;20028;-77
2023/04/25 05:13:54;;;;;;;18.58;5.95;;;;;;;4.61;100.00;101252.53;5074504;28;20040;-77
2023/04/25 05:16:20;;;;;;;19.58;6.38;;;;;;;4.69;100.00;101258.25;5074387;28;20547;-78
2023/04/25 05:18:46;;;;;;;15.63;5.70;;;;;;;4.63;100.00;101245.69;5074305;28;20120;-77
2023/04/25 05:21:12;;;;;;;15.63;5.63;;;;;;;4.57;100.00;101225.41;5074181;28;20104;-77
2023/04/25 05:23:37;;;;;;;15.05;6.13;;;;;;;4.87;100.00;101275.59;5074169;28;20024;-78
2023/04/25 05:26:03;;;;;;;15.02;5.13;;;;;;;4.92;100.00;101274.59;5074135;28;20033;-78
2023/04/25 05:28:28;;;;;;;18.40;6.65;;;;;;;4.97;100.00;101277.84;5074110;28;20073;-78
2023/04/25 05:30:53;;;;;;;17.08;6.22;;;;;;;5.20;100.00;101283.03;5073601;28;20048;-77
2023/04/25 05:33:19;;;;;;;14.40;5.25;;;;;;;5.16;100.00;101249.03;5074195;28;20103;-76
2023/04/25 05:35:45;;;;;;;20.95;5.97;;;;;;;5.36;100.00;101242.41;5073917;28;20036;-78
2023/04/25 05:38:11;;;;;;;19.83;6.05;;;;;;;5.87;100.00;101288.38;5073933;28;20027;-76
2023/04/25 05:40:36;;;;;;;19.25;5.60;;;;;;;5.94;100.00;101278.78;5073938;28;20108;-77
2023/04/25 05:43:01;;;;;;;14.05;4.95;;;;;;;5.93;99.83;101246.38;5073619;28;20055;-80
2023/04/25 05:45:27;;;;;;;14.13;4.80;;;;;;;6.23;98.44;101268.28;5073858;28;20036;-77
2023/04/25 05:47:52;;;;;;;12.35;4.82;;;;;;;6.23;96.79;101237.53;5073937;28;20601;-88
2023/04/25 05:50:17;;;;;;;14.98;4.57;;;;;;;7.24;94.06;101286.53;5072151;28;20048;-91
2023/04/25 05:52:43;;;;;;;15.00;5.22;;;;;;;8.35;87.46;101235.31;5073834;28;20043;-91
2023/04/25 05:55:08;;;;;;;16.42;4.97;;;;;;;10.45;79.76;101300.25;5073995;28;20028;-81
2023/04/25 05:57:34;;;;;;;13.27;3.75;;;;;;;12.02;71.42;101280.75;5072695;28;20458;-94
2023/04/25 05:59:59;;;;;;;12.02;3.67;;;;;;;12.56;65.75;101304.09;5073788;28;20468;-93
2023/04/25 06:02:25;;;;;;;9.68;3.08;;;;;;;12.13;66.59;101287.84;5072488;28;20055;-93
2023/04/25 06:04:51;;;;;;;13.45;3.38;;;;;;;10.93;64.58;101220.91;5075761;28;20090;-89
2023/04/25 06:07:17;;;;;;;11.57;3.17;;;;;;;10.10;66.97;101282.28;5074710;28;20507;-89
2023/04/25 06:09:43;;;;;;;10.00;3.45;;;;;;;10.06;72.05;101309.19;5073594;28;20027;-89
2023/04/25 06:12:08;;;;;;;11.07;3.42;;;;;;;10.84;66.26;101261.03;5073449;28;20024;-84
2023/04/25 06:14:34;;;;;;;10.25;3.53;;;;;;;12.20;65.17;101313.25;5051202;28;20036;-86
2023/04/25 06:17:06;;;;;;;10.90;3.30;;;;;;;13.34;60.16;101310.22;5053964;28;20035;-87
2023/04/25 06:19:31;;;;;;;;;;;;;;;14.25;66.01;101305.66;5053568;28;20473;-88
2023/04/25 06:21:56;;;;;;;8.15;2.40;;;;;;;14.55;54.45;101300.09;5052978;28;19955;-89
2023/04/25 06:24:22;;;;;;;9.93;2.80;;;;;;;14.33;52.52;101305.13;5053007;28;20458;-82
2023/04/25 06:26:47;;;;;;;9.43;2.50;;;;;;;13.38;53.90;101290.94;5072916;28;20036;-86
2023/04/25 06:29:13;;;;;;;11.20;2.85;;;;;;;13.19;56.10;101319.03;5071001;28;20035;-85
2023/04/25 06:31:38;;;;;;;6.30;2.33;;;;;;;13.69;52.70;101305.25;5073119;28;20082;-84
2023/04/25 06:34:04;;;;;;;8.82;2.97;;;;;;;14.13;52.77;101309.13;5072875;28;20028;-82
2023/04/25 06:36:30;;;;;;;8.50;3.08;;;;;;;14.86;51.05;101321.28;5072703;28;20103;-85
2023/04/25 06:38:55;;;;;;;7.65;2.90;;;;;;;15.40;48.65;101303.31;5073049;28;20472;-85
2023/04/25 06:41:20;;;;;;;7.45;2.17;;;;;;;15.97;47.03;101299.00;5072489;28;20012;-95
2023/04/25 06:43:46;;;;;;;7.93;2.00;;;;;;;16.40;44.80;101321.66;5072869;28;20082;-90
2023/04/25 06:46:11;;;;;;;5.63;1.70;;;;;;;16.45;44.33;101283.03;5072847;28;20028;-94
2023/04/25 06:48:37;;;;;;;6.57;2.03;;;;;;;17.32;42.30;101330.69;5071645;28;20063;-92
2023/04/25 06:51:02;;;;;;;9.75;2.97;;;;;;;17.32;41.69;101330.69;5072815;28;20173;-90
2023/04/25 06:53:28;;;;;;;7.55;1.95;;;;;;;17.19;41.36;101336.91;5072755;28;20032;-91
2023/04/25 06:55:53;;;;;;;8.10;2.35;;;;;;;17.17;40.68;101330.19;5072908;28;20024;-94
2023/04/25 06:58:18;;;;;;;7.75;2.10;;;;;;;16.85;40.58;101309.34;5072925;28;20068;-91
2023/04/25 07:00:44;;;;;;;9.05;2.17;;;;;;;16.23;40.54;101271.72;5072480;28;20028;-86
2023/04/25 07:03:09;;;;;;;8.68;1.92;;;;;;;16.57;42.30;101335.00;5070704;28;20364;-80
2023/04/25 07:05:35;;;;;;;7.50;1.73;;;;;;;16.44;41.68;101260.53;5072390;28;20053;-87
2023/04/25 07:08:00;;;;;;;5.65;1.60;;;;;;;17.55;39.38;101352.25;5072362;28;20035;-77
2023/04/25 07:10:26;;;;;;;5.78;1.58;;;;;;;17.20;39.30;101335.97;5036461;28;20432;-88
2023/04/25 07:12:51;;;;;;;7.35;1.77;;;;;;;17.01;38.46;101316.72;5032800;28;20022;-90
2023/04/25 07:15:20;;;;;;;5.82;1.73;;;;;;;16.08;39.90;101351.09;5035372;28;20043;-89
2023/04/25 07:17:45;;;;;;;6.65;1.52;;;;;;;14.10;44.15;101317.13;5042497;28;20098;-78
2023/04/25 07:20:11;;;;;;;9.75;2.45;;;;;;;12.86;47.61;101358.31;5033050;28;20488;-87
2023/04/25 07:22:36;;;;;;;7.95;1.70;;;;;;;11.89;49.54;101363.44;5032448;28;20473;-91
2023/04/25 07:25:02;;;;;;;6.97;1.88;;;;;;;10.31;52.18;101304.38;5032642;28;20140;-86
2023/04/25 07:27:28;;;;;;;8.07;1.95;;;;;;;9.96;54.95;101370.75;5032383;28;20026;-79
2023/04/25 07:29:53;;;;;;;8.13;1.92;;;;;;;9.30;57.73;101364.66;5032314;28;20029;-79
2023/04/25 07:32:18;;;;;;;9.88;2.55;;;;;;;9.10;58.65;101392.22;5032416;28;20026;-75
2023/04/25 07:34:44;;;;;;;7.07;2.10;;;;;;;9.09;60.99;101393.13;5032207;28;20021;-77
2023/04/25 07:37:10;;;;;;;9.38;2.40;;;;;;;9.01;59.84;101400.38;5032246;28;20079;-76
2023/04/25 07:39:36;;;;;;;11.80;2.47;;;;;;;9.10;59.90;101383.66;5032444;28;20021;-77
2023/04/25 07:42:03;;;;;;;8.20;2.35;;;;;;;8.88;59.54;101342.66;5032169;28;20040;-79
2023/04/25 07:44:30;;;;;;;7.38;1.98;;;;;;;8.96;60.21;101381.75;5031025;28;20033;-79
2023/04/25 07:46:55;;;;;;;8.15;2.10;;;;;;;9.11;60.97;101395.63;5031915;28;20380;-77
2023/04/25 07:49:21;;;;;;;11.68;2.35;;;;;;;9.25;59.87;101359.75;5032383;28;20026;-79
2023/04/25 07:51:46;;;;;;;9.82;2.13;;;;;;;9.88;61.70;101403.84;5032167;28;20362;-77
2023/04/25 07:54:15;;;;;;;8.32;2.50;;;;;;;10.23;59.20;101404.66;5035590;28;20025;-77
2023/04/25 07:56:41;;;;;;;6.70;2.08;;;;;;;10.09;56.45;101403.66;5036260;28;20033;-77
2023/04/25 07:59:06;;;;;;;11.60;2.13;;;;;;;9.81;58.23;101383.59;5036154;28;20061;-77
2023/04/25 08:01:31;;;;;;;9.50;2.42;;;;;;;9.91;57.91;101408.00;5035953;28;20120;-79
2023/04/25 08:03:57;;;;;;;12.00;2.75;;;;;;;9.64;56.85;101389.63;5035543;28;20042;-76
2023/04/25 08:06:22;;;;;;;12.75;2.72;;;;;;;9.70;58.67;101421.06;5034597;28;20099;-77
2023/04/25 08:08:48;;;;;;;10.52;2.35;;;;;;;9.73;57.91;101420.09;5035878;28;20071;-76
2023/04/25 08:11:13;;;;;;;11.55;2.30;;;;;;;9.73;58.06;101432.97;5035731;28;20025;-77
2023/04/25 08:13:38;;;;;;;8.68;2.70;;;;;;;9.65;59.39;101422.22;5035666;28;20018;-78
2023/04/25 08:16:04;;;;;;;11.13;2.88;;;;;;;9.64;60.67;101426.56;5034490;28;20059;-80
2023/04/25 08:18:29;;;;;;;9.77;1.95;;;;;;;9.71;60.42;101430.47;5036163;28;20059;-82
2023/04/25 08:20:54;;;;;;;11.13;2.95;;;;;;;9.46;60.92;101381.06;5036306;28;20021;-76
2023/04/25 08:23:20;;;;;;;9.13;2.67;;;;;;;9.64;61.40;101421.41;5034884;28;20129;-76
2023/04/25 08:25:45;;;;;;;12.55;2.47;;;;;;;9.70;61.63;101443.47;5042045;28;20065;-83
2023/04/25 08:28:10;;;;;;;9.90;2.42;;;;;;;9.96;62.24;101443.00;5038586;28;20057;-79
2023/04/25 08:30:36;;;;;;;10.20;2.38;;;;;;;9.87;61.48;101407.34;5038404;28;20042;-76
2023/04/25 08:33:01;;;;;;;8.20;3.00;;;;;;;10.28;61.93;101440.53;5037650;28;20029;-77
2023/04/25 08:35:27;;;;;;;8.85;2.00;;;;;;;10.36;60.17;101424.66;5037115;28;20132;-77
2023/04/25 08:37:52;;;;;;;11.43;2.60;;;;;;;10.57;60.69;101434.69;5038347;28;20032;-92
2023/04/25 08:40:19;;;;;;;9.07;2.38;;;;;;;10.89;59.22;101432.09;5036826;28;20025;-78
2023/04/25 08:42:46;;;;;;;12.30;2.45;;;;;;;11.17;57.69;101450.34;5035827;28;20025;-85
2023/04/25 08:45:12;;;;;;;9.63;2.28;;;;;;;11.03;55.72;101390.84;5035120;28;20025;-79
2023/04/25 08:47:39;;;;;;;7.20;2.00;;;;;;;11.42;54.01;101431.72;5035290;28;20051;-86
2023/04/25 08:50:05;;;;;;;9.88;2.28;;;;;;;11.34;54.56;101449.41;5035044;28;20096;-86
2023/04/25 08:52:43;;;;;;;9.70;1.95;;;;;;;11.30;51.83;101475.50;5035176;28;20468;-88
2023/04/25 08:55:09;;;;;;;9.13;1.85;;;;;;;10.75;51.32;101481.13;5035171;28;20547;-85
2023/04/25 08:57:35;;;;;;;8.05;2.45;;;;;;;10.33;54.49;101466.97;5034857;28;20032;-87
2023/04/25 09:00:01;;;;;;;9.52;1.85;;;;;;;10.24;55.79;101478.59;5034955;28;20385;-90
2023/04/25 09:02:27;;;;;;;7.82;1.80;;;;;;;10.09;58.15;101488.81;5034935;28;20054;-89
2023/04/25 09:04:54;;;;;;;10.77;1.83;;;;;;;9.98;59.44;101466.97;5033618;28;20045;-88
2023/04/25 09:07:21;;;;;;;11.13;2.05;;;;;;;10.33;57.79;101500.53;5034660;28;20034;-79
2023/04/25 09:09:46;;;;;;;10.00;2.53;;;;;;;10.25;58.81;101466.53;5034583;28;20021;-85
2023/04/25 09:12:11;;;;;;;8.15;1.95;;;;;;;10.46;56.61;101513.63;5034715;28;20389;-79
2023/04/25 09:14:37;;;;;;;6.40;1.65;;;;;;;10.56;56.29;101507.06;5034807;28;20469;-85
2023/04/25 09:17:05;;;;;;;7.32;1.80;;;;;;;10.41;55.69;101469.13;5034714;28;20021;-83
2023/04/25 09:19:33;;;;;;;8.45;2.33;;;;;;;10.71;54.14;101477.00;5034322;28;20025;-85
2023/04/25 09:22:00;;;;;;;7.43;1.88;;;;;;;10.93;55.72;101487.88;5034790;28;20104;-83
2023/04/25 09:24:41;;;;;;;7.05;1.73;;;;;;;10.97;55.29;101522.16;5034849;28;20029;-73
2023/04/25 09:27:08;;;;;;;9.35;2.13;;;;;;;10.57;56.55;101532.81;5034947;28;20026;-80
2023/04/25 09:29:37;;;;;;;5.68;1.75;;;;;;;9.91;57.15;101537.84;5034307;28;20024;-77
2023/04/25 09:32:20;;;;;;;9.23;1.88;;;;;;;9.22;63.62;101537.69;5034427;28;20031;-79
2023/04/25 09:34:56;;;;;;;7.82;2.30;;;;;;;8.42;66.67;101547.28;5033187;28;20099;-76
2023/04/25 09:37:27;;;;;;;6.78;1.70;;;;;;;7.53;69.37;101493.47;5034379;28;20064;-79
2023/04/25 09:40:02;;;;;;;8.65;1.55;;;;;;;7.76;71.27;101535.34;5034288;28;20104;-78
2023/04/25 09:42:31;;;;;;;9.48;2.05;;;;;;;8.08;72.91;101548.66;5034176;28;20393;-88
2023/04/25 09:44:58;;;;;;;7.70;2.08;;;;;;;8.10;71.73;101522.84;5034917;28;20362;-84
2023/04/25 09:47:28;;;;;;;5.53;2.00;;;;;;;8.32;69.90;101528.78;5050169;28;20031;-80
2023/04/25 09:49:54;;;;;;;8.73;2.00;;;;;;;8.27;71.17;101499.84;5074673;28;20102;-81
2023/04/25 09:52:24;;;;;;;6.90;1.40;;;;;;;8.66;59.67;101543.66;5074024;28;20115;-77
2023/04/25 09:54:51;;;;;;;6.88;1.27;;;;;;;8.72;59.53;101537.38;5072106;28;20047;-82
2023/04/25 09:57:18;;;;;;;4.80;1.45;;;;;;;8.89;61.00;101540.91;5073548;28;20028;-78
2023/04/25 09:59:44;;;;;;;7.50;1.20;;;;;;;8.71;57.73;101502.25;5073844;28;20038;-80
2023/04/25 10:02:11;;;;;;;5.05;1.20;;;;;;;9.02;56.49;101532.59;5070420;28;20036;-74
2023/04/25 10:04:38;;;;;;;5.82;1.45;;;;;;;8.97;56.42;101519.13;5055528;28;20080;-80
2023/04/25 10:07:05;;;;;;;6.60;1.40;;;;;;;9.17;56.41;101539.66;5054800;28;20112;-80
2023/04/25 10:09:33;;;;;;;6.82;1.50;;;;;;;9.34;59.56;101547.47;5053525;28;20040;-77
2023/04/25 10:12:00;;;;;;;5.47;1.60;;;;;;;9.24;56.14;101541.03;5053523;28;20431;-78
2023/04/25 10:14:26;;;;;;;7.15;2.00;;;;;;;9.02;58.19;101499.13;5053842;28;20465;-76
2023/04/25 10:16:53;;;;;;;6.47;1.70;;;;;;;9.47;60.02;101540.81;5053192;28;20020;-76
2023/04/25 10:19:20;;;;;;;6.97;1.48;;;;;;;9.82;59.50;101540.03;5053486;28;20052;-76
2023/04/25 10:21:52;;;;;;;7.38;1.42;;;;;;;9.39;57.13;101449.28;5053521;28;20029;-78
2023/04/25 10:24:19;;;;;;;7.40;1.63;;;;;;;10.13;56.89;101536.78;5053357;28;20060;-83
2023/04/25 10:26:45;;;;;;;4.60;1.45;;;;;;;9.73;52.73;101456.19;5053352;28;20094;-80
2023/04/25 10:29:10;;;;;;;7.55;1.67;;;;;;;10.39;51.15;101535.50;5053328;28;20031;-79
2023/04/25 10:31:45;;;;;;;6.22;1.50;;;;;;;10.59;54.26;101512.91;5053261;28;20380;-77
2023/04/25 10:34:10;;;;;;;8.05;1.88;;;;;;;10.96;49.54;101528.22;5053109;28;20021;-79
2023/04/25 10:36:37;;;;;;;10.32;2.25;;;;;;;11.54;53.94;101530.22;5052940;28;20113;-75
2023/04/25 10:39:08;;;;;;;5.97;1.83;;;;;;;11.58;51.06;101496.31;5051662;28;20013;-76
2023/04/25 10:42:07;;;;;;;;;;;;;;;11.62;51.00;101541.81;5053212;28;20108;-77
2023/04/25 10:44:33;;;;;;;5.85;1.48;;;;;;;11.06;49.08;101545.75;5030747;28;19919;-79
2023/04/25 10:47:00;;;;;;;4.93;1.58;;;;;;;10.25;49.20;101513.81;5028058;28;20504;-75
2023/04/25 10:49:42;;;;;;;6.68;1.67;;;;;;;10.07;53.66;101574.88;5030850;28;20029;-80
2023/04/25 10:52:28;;;;;;;8.48;1.67;;;;;;;9.35;61.64;101582.63;5029512;28;20105;-80
2023/04/25 10:54:54;;;;;;;10.50;2.20;;;;;;;8.42;72.20;101591.03;5030937;28;20489;-78
2023/04/25 10:57:36;;;;;;;7.75;1.70;;;;;;;7.79;78.21;101592.69;5013332;28;20030;-77
2023/04/25 11:00:15;;;;;;;7.30;1.73;;;;;;;7.31;83.03;101567.97;5010548;28;20042;-78
2023/04/25 11:03:01;;;;;;;9.73;2.17;;;;;;;7.29;83.79;101588.59;5010622;28;20085;-76
2023/04/25 11:05:32;;;;;;;7.97;2.40;;;;;;;6.47;80.51;101446.09;5010095;28;20514;-79
2023/04/25 11:07:59;;;;;;;5.75;1.73;;;;;;;7.55;78.88;101568.75;5010777;28;20041;-83
2023/04/25 11:10:29;;;;;;;6.93;1.95;;;;;;;7.60;74.65;101526.56;5010665;28;20393;-85
2023/04/25 11:12:54;;;;;;;7.88;2.00;;;;;;;8.05;70.92;101530.75;5010650;28;20038;-80
2023/04/25 11:15:20;;;;;;;5.68;1.90;;;;;;;8.68;69.74;101589.94;5010626;28;20036;-81
2023/04/25 11:17:46;;;;;;;8.32;2.13;;;;;;;8.62;69.80;101552.41;5010368;28;20097;-79